createdAt,value
2019-05-30T00:00:16.570Z,3.60
2019-05-30T00:02:34.986Z,2.98
2019-05-30T00:05:02.702Z,3.20
2019-05-30T00:10:01.166Z,3.33
2019-05-30T00:12:27.801Z,3.02
2019-05-30T00:14:54.530Z,2.95
2019-05-30T00:17:21.214Z,3.05
2019-05-30T00:19:47.812Z,3.33
2019-05-30T00:22:14.418Z,3.55
2019-05-30T00:24:41.123Z,3.72
2019-05-30T00:27:07.720Z,3.15
2019-05-30T00:29:34.330Z,3.87
2019-05-30T00:32:01.592Z,3.00
2019-05-30T00:34:28.328Z,3.72
2019-05-30T00:36:58.187Z,3.25
2019-05-30T00:39:24.847Z,3.60
2019-05-30T00:41:52.375Z,3.47
2019-05-30T00:44:19.016Z,3.65
2019-05-30T00:46:45.603Z,4.30
2019-05-30T00:49:12.252Z,3.77
2019-05-30T00:51:38.871Z,3.55
2019-05-30T00:54:06.870Z,4.00
2019-05-30T00:56:33.670Z,3.70
2019-05-30T00:59:00.660Z,3.27
2019-05-30T01:01:27.442Z,3.92
2019-05-30T01:03:54.028Z,3.83
2019-05-30T01:06:20.669Z,4.83
2019-05-30T01:08:47.302Z,4.15
2019-05-30T01:11:20.124Z,4.00
2019-05-30T01:13:46.751Z,3.70
2019-05-30T01:16:13.407Z,4.40
2019-05-30T01:18:39.996Z,4.25
2019-05-30T01:21:07.435Z,4.28
2019-05-30T01:23:34.537Z,4.03
2019-05-30T01:26:01.406Z,4.15
2019-05-30T01:28:28.008Z,4.62
2019-05-30T01:31:01.538Z,4.33
2019-05-30T01:33:22.975Z,3.65
2019-05-30T01:35:49.564Z,4.85
2019-05-30T01:38:16.183Z,4.25
2019-05-30T01:40:42.804Z,3.72
2019-05-30T01:43:09.515Z,4.15
2019-05-30T01:45:36.127Z,3.77
2019-05-30T01:48:02.959Z,3.52
2019-05-30T01:50:30.037Z,3.70
2019-05-30T01:52:56.625Z,3.65
2019-05-30T01:55:23.272Z,2.80
2019-05-30T01:57:49.874Z,3.02
2019-05-30T02:00:21.339Z,3.70
2019-05-30T02:02:44.903Z,3.40
2019-05-30T02:05:11.498Z,3.10
2019-05-30T02:07:38.143Z,2.75
2019-05-30T02:10:05.304Z,2.42
2019-05-30T02:12:32.009Z,2.80
2019-05-30T02:14:59.396Z,2.47
2019-05-30T02:17:26.153Z,3.00
2019-05-30T02:19:52.745Z,2.37
2019-05-30T02:22:19.366Z,2.67
2019-05-30T02:24:45.951Z,2.60
2019-05-30T02:27:12.579Z,2.58
2019-05-30T02:29:39.167Z,2.75
2019-05-30T02:32:07.044Z,2.65
2019-05-30T02:34:33.889Z,2.37
2019-05-30T02:37:01.142Z,2.92
2019-05-30T02:39:28.894Z,2.45
2019-05-30T02:41:55.548Z,2.62
2019-05-30T02:44:22.142Z,2.52
2019-05-30T02:46:55.166Z,2.10
2019-05-30T02:49:21.759Z,2.33
2019-05-30T02:51:48.393Z,2.40
2019-05-30T02:54:15.170Z,2.25
2019-05-30T02:56:41.805Z,2.80
2019-05-30T02:59:09.334Z,2.42
2019-05-30T03:01:36.771Z,2.40
2019-05-30T03:04:04.040Z,1.90
2019-05-30T03:06:31.711Z,2.17
2019-05-30T03:08:58.299Z,2.37
2019-05-30T03:11:24.991Z,2.42
2019-05-30T03:13:51.564Z,1.80
2019-05-30T03:16:18.156Z,2.25
2019-05-30T03:18:44.831Z,2.10
2019-05-30T03:21:13.430Z,1.90
2019-05-30T03:23:39.785Z,2.05
2019-05-30T03:26:09.182Z,2.75
2019-05-30T03:28:34.764Z,2.02
2019-05-30T03:31:04.417Z,1.80
2019-05-30T03:33:39.512Z,2.15
2019-05-30T03:35:58.137Z,1.95
2019-05-30T03:38:24.763Z,1.67
2019-05-30T03:40:51.426Z,2.17
2019-05-30T03:43:18.037Z,1.95
2019-05-30T03:45:44.716Z,2.25
2019-05-30T03:48:12.334Z,1.52
2019-05-30T03:50:39.781Z,1.70
2019-05-30T03:53:07.435Z,2.20
2019-05-30T03:55:34.730Z,1.55
2019-05-30T03:58:01.385Z,2.02
2019-05-30T04:00:28.083Z,1.82
2019-05-30T04:02:58.417Z,1.70
2019-05-30T04:05:23.238Z,2.00
2019-05-30T04:07:49.855Z,1.42
2019-05-30T04:10:16.461Z,1.77
2019-05-30T04:12:43.092Z,1.72
2019-05-30T04:15:10.576Z,1.85
2019-05-30T04:17:38.148Z,2.10
2019-05-30T04:20:04.761Z,2.00
2019-05-30T04:22:31.562Z,1.72
2019-05-30T04:24:58.171Z,2.17
2019-05-30T04:27:24.761Z,1.87
2019-05-30T04:29:51.382Z,2.05
2019-05-30T04:32:18.720Z,1.55
2019-05-30T04:34:54.624Z,2.15
2019-05-30T04:37:21.297Z,1.55
2019-05-30T04:39:47.937Z,1.70
2019-05-30T04:42:16.122Z,1.70
2019-05-30T04:44:42.929Z,1.70
2019-05-30T04:47:09.992Z,1.90
2019-05-30T04:52:14.244Z,1.50
2019-05-30T04:54:37.573Z,1.85
2019-05-30T04:57:04.223Z,1.82
2019-05-30T04:59:30.827Z,1.92
2019-05-30T05:01:57.630Z,1.70
2019-05-30T05:04:24.229Z,1.95
2019-05-30T05:06:53.604Z,1.60
2019-05-30T05:09:20.406Z,1.72
2019-05-30T05:14:20.586Z,2.05
2019-05-30T05:16:47.313Z,1.40
2019-05-30T05:19:14.882Z,2.00
2019-05-30T05:21:41.769Z,2.45
2019-05-30T05:24:08.371Z,1.92
2019-05-30T05:26:40.706Z,1.60
2019-05-30T05:29:07.328Z,1.62
2019-05-30T05:31:33.927Z,2.17
2019-05-30T05:34:01.845Z,2.37
2019-05-30T05:36:28.437Z,2.95
2019-05-30T05:38:55.073Z,1.45
2019-05-30T05:41:22.291Z,1.82
2019-05-30T05:43:49.072Z,1.82
2019-05-30T05:46:16.434Z,1.45
2019-05-30T05:48:43.213Z,2.42
2019-05-30T05:51:09.802Z,1.45
2019-05-30T05:53:36.436Z,1.42
2019-05-30T05:56:03.066Z,1.72
2019-05-30T05:58:29.668Z,2.00
2019-05-30T06:00:56.280Z,1.82
2019-05-30T06:03:24.147Z,1.50
2019-05-30T06:05:53.369Z,1.70
2019-05-30T06:08:19.574Z,1.60
2019-05-30T06:10:46.276Z,1.67
2019-05-30T06:13:12.903Z,1.50
2019-05-30T06:15:39.486Z,1.62
2019-05-30T06:18:12.088Z,2.37
2019-05-30T06:20:38.825Z,1.95
2019-05-30T06:23:05.530Z,1.70
2019-05-30T06:25:33.055Z,1.62
2019-05-30T06:27:59.796Z,1.62
2019-05-30T06:30:26.479Z,1.95
2019-05-30T06:32:53.112Z,1.52
2019-05-30T06:35:21.398Z,1.80
2019-05-30T06:37:48.292Z,1.70
2019-05-30T06:40:14.877Z,1.30
2019-05-30T06:42:41.473Z,1.50
2019-05-30T06:45:08.104Z,1.70
2019-05-30T06:47:35.724Z,2.12
2019-05-30T06:50:02.302Z,1.80
2019-05-30T06:52:29.164Z,2.08
2019-05-30T06:54:55.888Z,1.65
2019-05-30T06:57:23.118Z,1.90
2019-05-30T06:59:49.858Z,2.25
2019-05-30T07:02:16.695Z,2.87
2019-05-30T07:04:51.639Z,1.98
2019-05-30T07:07:11.970Z,1.77
2019-05-30T07:09:38.801Z,1.90
2019-05-30T07:12:07.263Z,1.75
2019-05-30T07:14:33.932Z,1.52
2019-05-30T07:17:00.539Z,1.95
2019-05-30T07:19:27.390Z,2.15
2019-05-30T07:21:54.264Z,1.92
2019-05-30T07:24:20.902Z,1.60
2019-05-30T07:26:47.513Z,1.70
2019-05-30T07:29:14.134Z,1.60
2019-05-30T07:31:40.832Z,1.77
2019-05-30T07:34:07.444Z,1.90
2019-05-30T07:36:34.435Z,1.60
2019-05-30T07:39:01.128Z,1.55
2019-05-30T07:41:28.777Z,2.00
2019-05-30T07:43:58.276Z,1.95
2019-05-30T07:46:24.864Z,2.33
2019-05-30T07:48:51.500Z,1.55
2019-05-30T07:51:19.417Z,1.32
2019-05-30T07:53:47.778Z,1.50
2019-05-30T07:56:14.480Z,1.98
2019-05-30T07:58:41.181Z,1.57
2019-05-30T08:01:07.783Z,3.02
2019-05-30T08:03:34.735Z,1.90
2019-05-30T08:06:01.505Z,1.65
2019-05-30T08:08:28.181Z,1.90
2019-05-30T08:11:08.291Z,1.57
2019-05-30T08:13:23.393Z,1.47
2019-05-30T08:15:50.025Z,1.67
2019-05-30T08:18:16.644Z,2.77
2019-05-30T08:20:43.297Z,1.50
2019-05-30T08:23:10.159Z,1.37
2019-05-30T08:25:36.975Z,1.70
2019-05-30T08:28:03.629Z,1.85
2019-05-30T08:30:30.393Z,1.77
2019-05-30T08:32:57.308Z,1.47
2019-05-30T08:35:39.145Z,1.67
2019-05-30T08:37:52.233Z,1.50
2019-05-30T08:40:18.894Z,2.08
2019-05-30T08:42:45.493Z,1.45
2019-05-30T08:45:12.092Z,1.70
2019-05-30T08:47:38.723Z,1.70
2019-05-30T08:50:05.395Z,1.50
2019-05-30T08:52:32.385Z,1.72
2019-05-30T08:54:59.090Z,1.98
2019-05-30T08:57:25.709Z,1.45
2019-05-30T08:59:52.328Z,2.27
2019-05-30T09:02:18.933Z,1.80
2019-05-30T09:04:46.011Z,1.72
2019-05-30T09:07:12.775Z,2.10
2019-05-30T09:09:40.187Z,1.70
2019-05-30T09:12:06.975Z,1.75
2019-05-30T09:14:33.633Z,1.60
2019-05-30T09:17:00.237Z,1.75
2019-05-30T09:19:26.854Z,1.50
2019-05-30T09:21:53.489Z,1.62
2019-05-30T09:24:20.119Z,1.70
2019-05-30T09:26:49.047Z,1.35
2019-05-30T09:29:15.082Z,1.80
2019-05-30T09:31:42.809Z,1.77
2019-05-30T09:34:12.050Z,1.72
2019-05-30T09:36:39.451Z,1.75
2019-05-30T09:39:06.265Z,1.60
2019-05-30T09:41:32.893Z,1.75
2019-05-30T09:43:59.497Z,1.75
2019-05-30T09:46:26.131Z,1.05
2019-05-30T09:48:52.766Z,1.55
2019-05-30T09:51:19.352Z,1.85
2019-05-30T09:53:46.090Z,2.15
2019-05-30T09:56:12.792Z,1.90
2019-05-30T09:58:39.404Z,1.92
2019-05-30T10:01:06.006Z,1.62
2019-05-30T10:03:32.728Z,1.70
2019-05-30T10:05:59.377Z,1.40
2019-05-30T10:08:25.982Z,1.32
2019-05-30T10:10:53.522Z,1.52
2019-05-30T10:13:20.317Z,1.60
2019-05-30T10:15:47.085Z,1.70
2019-05-30T10:18:14.012Z,1.35
2019-05-30T10:20:41.974Z,1.40
2019-05-30T10:23:08.731Z,1.60
2019-05-30T10:25:35.326Z,1.42
2019-05-30T10:28:01.927Z,1.40
2019-05-30T10:30:28.544Z,1.77
2019-05-30T10:32:55.963Z,1.90
2019-05-30T10:35:22.753Z,1.70
2019-05-30T10:37:50.765Z,1.62
2019-05-30T10:40:17.697Z,1.50
2019-05-30T10:42:44.329Z,1.95
2019-05-30T10:45:10.957Z,2.25
2019-05-30T10:47:37.584Z,2.45
2019-05-30T10:50:04.170Z,1.90
2019-05-30T10:52:30.819Z,1.80
2019-05-30T10:54:57.455Z,2.05
2019-05-30T10:57:24.170Z,1.50
2019-05-30T10:59:50.944Z,2.20
2019-05-30T11:02:17.677Z,2.90
2019-05-30T11:04:44.270Z,2.55
2019-05-30T11:07:12.020Z,2.37
2019-05-30T11:09:39.022Z,3.50
2019-05-30T11:12:05.618Z,6.08
2019-05-30T11:14:32.242Z,4.95
2019-05-30T11:16:58.827Z,3.85
2019-05-30T11:19:25.472Z,3.92
2019-05-30T11:21:52.799Z,3.40
2019-05-30T11:24:20.568Z,2.80
2019-05-30T11:26:50.420Z,2.08
2019-05-30T11:29:15.507Z,2.60
2019-05-30T11:31:42.132Z,2.72
2019-05-30T11:34:08.737Z,2.05
2019-05-30T11:36:35.378Z,2.30
2019-05-30T11:39:02.016Z,3.22
2019-05-30T11:41:28.673Z,17.85
2019-05-30T11:43:55.639Z,12.23
2019-05-30T11:46:22.339Z,3.95
2019-05-30T11:48:49.615Z,2.87
2019-05-30T11:51:16.352Z,2.22
2019-05-30T11:53:42.949Z,2.65
2019-05-30T11:56:09.592Z,2.45
2019-05-30T11:58:36.182Z,2.17
2019-05-30T12:01:02.861Z,2.10
2019-05-30T12:03:29.813Z,2.15
2019-05-30T12:05:56.626Z,2.08
2019-05-30T12:08:23.237Z,1.72
2019-05-30T12:10:51.087Z,2.12
2019-05-30T12:13:17.826Z,1.92
2019-05-30T12:15:44.467Z,2.15
2019-05-30T12:18:11.065Z,2.52
2019-05-30T12:20:37.705Z,2.52
2019-05-30T12:23:04.324Z,2.70
2019-05-30T12:25:30.928Z,2.87
2019-05-30T12:27:58.163Z,2.25
2019-05-30T12:30:24.907Z,3.10
2019-05-30T12:32:52.440Z,2.70
2019-05-30T12:35:19.338Z,3.30
2019-05-30T12:37:54.967Z,2.20
2019-05-30T12:40:14.414Z,3.05
2019-05-30T12:42:41.005Z,3.12
2019-05-30T12:45:07.629Z,3.00
2019-05-30T12:47:34.249Z,2.60
2019-05-30T12:50:01.425Z,3.15
2019-05-30T12:52:28.275Z,2.45
2019-05-30T12:54:54.927Z,2.62
2019-05-30T12:57:21.623Z,2.37
2019-05-30T12:59:48.220Z,2.45
2019-05-30T13:02:14.872Z,2.33
2019-05-30T13:04:41.647Z,2.08
2019-05-30T13:07:08.245Z,2.42
2019-05-30T13:09:34.887Z,2.27
2019-05-30T13:12:02.595Z,2.60
2019-05-30T13:14:29.320Z,2.25
2019-05-30T13:16:55.974Z,2.02
2019-05-30T13:19:22.588Z,1.70
2019-05-30T13:21:49.191Z,2.05
2019-05-30T13:24:15.881Z,2.10
2019-05-30T13:26:42.726Z,2.27
2019-05-30T13:29:09.342Z,1.98
2019-05-30T13:31:35.932Z,2.20
2019-05-30T13:34:02.936Z,2.15
2019-05-30T13:36:29.756Z,1.90
2019-05-30T13:38:57.107Z,1.42
2019-05-30T13:41:23.884Z,1.65
2019-05-30T13:43:50.512Z,1.82
2019-05-30T13:46:17.115Z,2.35
2019-05-30T13:48:43.752Z,1.60
2019-05-30T13:51:10.406Z,2.10
2019-05-30T13:53:37.009Z,1.67
2019-05-30T13:56:03.626Z,2.00
2019-05-30T13:58:30.264Z,1.70
2019-05-30T14:00:56.881Z,2.05
2019-05-30T14:03:23.493Z,2.55
2019-05-30T14:05:50.137Z,2.15
2019-05-30T14:08:16.921Z,2.22
2019-05-30T14:10:43.549Z,2.08
2019-05-30T14:13:11.263Z,2.30
2019-05-30T14:15:38.078Z,2.47
2019-05-30T14:18:04.998Z,2.52
2019-05-30T14:20:31.674Z,2.45
2019-05-30T14:22:58.351Z,2.40
2019-05-30T14:25:24.972Z,2.95
2019-05-30T14:27:51.561Z,3.25
2019-05-30T14:30:18.193Z,2.77
2019-05-30T14:32:44.903Z,2.92
2019-05-30T14:35:13.672Z,2.33
2019-05-30T14:37:40.341Z,2.12
2019-05-30T14:40:06.998Z,2.72
2019-05-30T14:42:33.612Z,1.98
2019-05-30T14:45:00.198Z,2.08
2019-05-30T14:47:26.870Z,1.87
2019-05-30T14:49:53.471Z,2.00
2019-05-30T14:52:20.065Z,2.22
2019-05-30T14:54:46.688Z,1.22
2019-05-30T14:57:13.363Z,2.15
2019-05-30T14:59:39.977Z,1.70
2019-05-30T15:02:07.114Z,1.70
2019-05-30T15:04:33.907Z,2.05
2019-05-30T15:07:00.695Z,2.65
2019-05-30T15:09:27.467Z,2.20
2019-05-30T15:11:54.103Z,1.98
2019-05-30T15:14:20.740Z,2.27
2019-05-30T15:16:47.365Z,3.20
2019-05-30T15:19:14.334Z,3.27
2019-05-30T15:21:41.073Z,2.50
2019-05-30T15:24:07.803Z,3.33
2019-05-30T15:26:34.531Z,4.42
2019-05-30T15:29:01.127Z,3.33
2019-05-30T15:31:27.997Z,5.37
2019-05-30T15:33:54.609Z,3.70
2019-05-30T15:36:21.273Z,3.02
2019-05-30T15:38:47.886Z,3.10
2019-05-30T15:41:15.231Z,3.10
2019-05-30T15:43:41.921Z,3.15
2019-05-30T15:46:09.733Z,3.15
2019-05-30T15:48:36.535Z,4.10
2019-05-30T15:51:03.154Z,3.67
2019-05-30T15:53:29.791Z,3.52
2019-05-30T15:55:56.405Z,3.67
2019-05-30T15:58:23.087Z,4.53
2019-05-30T16:00:49.692Z,3.10
2019-05-30T16:03:16.511Z,4.08
2019-05-30T16:05:43.180Z,3.65
2019-05-30T16:08:10.667Z,3.70
2019-05-30T16:10:37.300Z,4.20
2019-05-30T16:13:03.893Z,4.55
2019-05-30T16:15:30.557Z,4.53
2019-05-30T16:17:57.164Z,4.33
2019-05-30T16:20:23.808Z,4.00
2019-05-30T16:22:50.490Z,4.22
2019-05-30T16:25:17.723Z,3.50
2019-05-30T16:27:44.640Z,3.83
2019-05-30T16:30:25.157Z,4.08
2019-05-30T16:32:48.405Z,5.83
2019-05-30T16:35:15.984Z,3.45
2019-05-30T16:37:42.741Z,4.37
2019-05-30T16:40:09.484Z,4.05
2019-05-30T16:42:36.145Z,5.17
2019-05-30T16:45:02.986Z,4.12
2019-05-30T16:47:29.978Z,4.50
2019-05-30T16:49:56.626Z,4.25
2019-05-30T16:52:23.250Z,4.00
2019-05-30T16:54:49.927Z,4.22
2019-05-30T16:57:18.545Z,3.90
2019-05-30T16:59:45.335Z,4.62
2019-05-30T17:02:11.991Z,4.33
2019-05-30T17:04:40.885Z,4.72
2019-05-30T17:07:07.195Z,4.03
2019-05-30T17:09:33.870Z,4.45
2019-05-30T17:12:00.477Z,3.25
2019-05-30T17:14:27.099Z,4.67
2019-05-30T17:16:53.869Z,3.67
2019-05-30T17:19:20.493Z,3.85
2019-05-30T17:21:47.083Z,4.97
2019-05-30T17:24:13.700Z,3.62
2019-05-30T17:26:40.336Z,3.72
2019-05-30T17:29:06.959Z,3.72
2019-05-30T17:31:33.541Z,4.00
2019-05-30T17:34:00.216Z,4.00
2019-05-30T17:36:26.937Z,4.50
2019-05-30T17:38:53.580Z,4.92
2019-05-30T17:41:20.566Z,4.87
2019-05-30T17:43:47.258Z,3.87
2019-05-30T17:46:13.854Z,5.87
2019-05-30T17:48:40.491Z,4.78
2019-05-30T17:51:07.087Z,6.17
2019-05-30T17:53:33.744Z,5.95
2019-05-30T17:56:00.338Z,6.03
2019-05-30T17:58:28.025Z,5.40
2019-05-30T18:00:57.093Z,5.12
2019-05-30T18:03:24.334Z,4.22
2019-05-30T18:05:51.091Z,4.85
2019-05-30T18:08:17.698Z,4.22
2019-05-30T18:10:53.405Z,4.58
2019-05-30T18:13:12.644Z,5.22
2019-05-30T18:15:39.247Z,5.58
2019-05-30T18:18:05.879Z,5.92
2019-05-30T18:20:45.587Z,5.30
2019-05-30T18:23:00.833Z,5.03
2019-05-30T18:25:27.698Z,5.90
2019-05-30T18:27:54.441Z,5.20
2019-05-30T18:30:21.698Z,4.60
2019-05-30T18:32:48.467Z,4.30
2019-05-30T18:35:15.069Z,4.80
2019-05-30T18:37:41.678Z,4.85
2019-05-30T18:40:08.293Z,4.37
2019-05-30T18:42:34.924Z,4.12
2019-05-30T18:45:01.545Z,4.00
2019-05-30T18:47:29.103Z,5.25
2019-05-30T18:49:55.959Z,4.00
2019-05-30T18:52:22.597Z,4.22
2019-05-30T18:54:49.193Z,4.33
2019-05-30T18:57:15.839Z,4.22
2019-05-30T18:59:42.426Z,4.62
2019-05-30T19:02:09.049Z,4.17
2019-05-30T19:04:35.914Z,4.22
2019-05-30T19:07:02.665Z,3.87
2019-05-30T19:09:29.453Z,4.37
2019-05-30T19:11:56.111Z,4.83
2019-05-30T19:14:22.713Z,4.03
2019-05-30T19:16:49.359Z,4.03
2019-05-30T19:19:15.992Z,4.53
2019-05-30T19:21:42.625Z,4.30
2019-05-30T19:24:09.227Z,4.83
2019-05-30T19:26:36.726Z,4.47
2019-05-30T19:29:03.595Z,4.35
2019-05-30T19:31:32.713Z,4.10
2019-05-30T19:33:59.397Z,4.37
2019-05-30T19:36:26.841Z,4.53
2019-05-30T19:38:53.530Z,5.05
2019-05-30T19:41:20.125Z,6.53
2019-05-30T19:43:47.640Z,5.40
2019-05-30T19:46:14.292Z,5.60
2019-05-30T19:48:40.900Z,5.28
2019-05-30T19:51:07.805Z,6.17
2019-05-30T19:53:34.949Z,5.78
2019-05-30T19:56:01.726Z,6.58
2019-05-30T19:58:29.534Z,5.55
2019-05-30T20:00:58.897Z,5.67
2019-05-30T20:03:36.414Z,5.30
2019-05-30T20:05:52.955Z,6.47
2019-05-30T20:08:19.587Z,6.55
2019-05-30T20:10:46.181Z,6.05
2019-05-30T20:13:12.819Z,7.62
2019-05-30T20:15:39.615Z,5.50
2019-05-30T20:18:06.396Z,4.90
2019-05-30T20:20:49.365Z,5.05
2019-05-30T20:23:01.359Z,6.25
2019-05-30T20:25:28.014Z,5.80
2019-05-30T20:27:54.610Z,6.12
2019-05-30T20:30:21.312Z,5.25
2019-05-30T20:32:47.970Z,4.80
2019-05-30T20:35:15.681Z,5.50
2019-05-30T20:37:42.965Z,6.37
2019-05-30T20:40:09.698Z,5.20
2019-05-30T20:42:36.793Z,5.05
2019-05-30T20:45:05.715Z,4.85
2019-05-30T20:47:35.354Z,5.22
2019-05-30T20:50:00.235Z,7.50
2019-05-30T20:52:26.897Z,6.47
2019-05-30T20:54:53.515Z,5.95
2019-05-30T20:57:20.111Z,6.92
2019-05-30T20:59:47.095Z,6.03
2019-05-30T21:02:13.948Z,5.17
2019-05-30T21:04:40.945Z,4.00
2019-05-30T21:07:07.758Z,3.92
2019-05-30T21:09:35.852Z,4.55
2019-05-30T21:12:02.665Z,4.00
2019-05-30T21:14:29.258Z,4.58
2019-05-30T21:16:55.841Z,4.28
2019-05-30T21:19:22.468Z,4.17
2019-05-30T21:21:49.061Z,4.97
2019-05-30T21:24:15.682Z,4.72
2019-05-30T21:26:42.794Z,4.55
2019-05-30T21:29:09.615Z,4.33
2019-05-30T21:31:37.266Z,4.30
2019-05-30T21:34:04.283Z,4.00
2019-05-30T21:36:30.990Z,4.78
2019-05-30T21:38:57.663Z,4.42
2019-05-30T21:41:24.291Z,4.53
2019-05-30T21:43:50.903Z,4.22
2019-05-30T21:46:17.496Z,4.33
2019-05-30T21:48:44.934Z,4.42
2019-05-30T21:51:11.738Z,4.40
2019-05-30T21:53:39.348Z,5.25
2019-05-30T21:56:06.080Z,4.67
2019-05-30T21:58:32.670Z,4.87
2019-05-30T22:00:59.270Z,5.03
2019-05-30T22:03:25.901Z,5.05
2019-05-30T22:05:52.503Z,4.87
2019-05-30T22:08:19.105Z,5.33
2019-05-30T22:10:45.718Z,6.53
2019-05-30T22:13:12.332Z,4.55
2019-05-30T22:15:38.935Z,5.00
2019-05-30T22:18:05.631Z,6.17
2019-05-30T22:20:32.227Z,5.10
2019-05-30T22:22:58.877Z,5.65
2019-05-30T22:25:25.469Z,5.15
2019-05-30T22:27:52.543Z,5.10
2019-05-30T22:30:19.311Z,4.50
2019-05-30T22:32:46.583Z,5.45
2019-05-30T22:35:13.342Z,5.03
2019-05-30T22:37:39.962Z,4.25
2019-05-30T22:40:06.628Z,4.55
2019-05-30T22:42:33.234Z,4.42
2019-05-30T22:44:59.818Z,4.70
2019-05-30T22:47:26.449Z,4.85
2019-05-30T22:49:53.093Z,5.67
2019-05-30T22:52:19.736Z,4.20
2019-05-30T22:54:47.095Z,4.35
2019-05-30T22:57:13.847Z,5.20
2019-05-30T22:59:40.444Z,4.50
2019-05-30T23:02:07.069Z,4.35
2019-05-30T23:04:33.741Z,5.10
2019-05-30T23:07:00.423Z,5.03
2019-05-30T23:09:27.067Z,5.00
2019-05-30T23:11:53.929Z,5.33
2019-05-30T23:14:20.697Z,4.28
2019-05-30T23:16:48.199Z,6.03
2019-05-30T23:19:14.956Z,4.60
2019-05-30T23:21:41.591Z,5.85
2019-05-30T23:24:08.240Z,4.28
2019-05-30T23:26:34.861Z,6.22
2019-05-30T23:29:01.460Z,4.47
2019-05-30T23:31:28.168Z,4.90
2019-05-30T23:33:54.802Z,4.67
2019-05-30T23:36:21.435Z,5.85
2019-05-30T23:38:48.665Z,4.30
2019-05-30T23:41:15.462Z,4.78
2019-05-30T23:43:55.375Z,4.17
2019-05-30T23:46:10.468Z,4.17
2019-05-30T23:48:37.068Z,4.15
2019-05-30T23:51:03.675Z,4.58
2019-05-30T23:53:30.307Z,4.85
2019-05-30T23:55:56.908Z,4.10
2019-05-30T23:58:23.761Z,4.40
